createdAt,value
2023-03-20T00:02:22.597Z,17.52
2023-03-20T00:04:50.418Z,16.73
2023-03-20T00:07:17.443Z,16.20
2023-03-20T00:09:44.759Z,16.05
2023-03-20T00:12:26.367Z,15.85
2023-03-20T00:14:53.968Z,15.37
2023-03-20T00:17:21.461Z,16.15
2023-03-20T00:19:49.542Z,15.15
2023-03-20T00:22:16.688Z,15.13
2023-03-20T00:24:44.103Z,16.50
2023-03-20T00:27:15.757Z,17.98
2023-03-20T00:29:44.441Z,17.73
2023-03-20T00:32:13.521Z,19.13
2023-03-20T00:34:41.542Z,16.40
2023-03-20T00:37:09.768Z,17.23
2023-03-20T00:39:36.995Z,17.10
2023-03-20T00:42:06.638Z,17.85
2023-03-20T00:44:41.459Z,18.63
2023-03-20T00:47:23.279Z,18.08
2023-03-20T00:49:54.500Z,18.02
2023-03-20T00:52:22.760Z,18.75
2023-03-20T00:54:52.636Z,18.20
2023-03-20T00:57:26.544Z,18.45
2023-03-20T01:00:06.806Z,18.05
2023-03-20T01:02:34.611Z,17.25
2023-03-20T01:05:05.536Z,17.95
2023-03-20T01:07:32.570Z,17.77
2023-03-20T01:09:59.893Z,18.13
2023-03-20T01:12:28.261Z,18.10
2023-03-20T01:14:58.481Z,16.48
2023-03-20T01:17:28.231Z,17.42
2023-03-20T01:19:55.820Z,16.65
2023-03-20T01:22:23.426Z,16.95
2023-03-20T01:24:50.880Z,16.67
2023-03-20T01:27:20.271Z,17.13
2023-03-20T01:29:47.972Z,16.25
2023-03-20T01:32:19.995Z,16.88
2023-03-20T01:34:53.139Z,16.83
2023-03-20T01:37:27.563Z,16.42
2023-03-20T01:39:58.400Z,15.57
2023-03-20T01:42:26.284Z,15.25
2023-03-20T01:44:53.630Z,15.65
2023-03-20T01:47:25.875Z,16.70
2023-03-20T01:50:23.931Z,15.63
2023-03-20T01:53:12.004Z,15.18
2023-03-20T01:55:47.103Z,15.40
2023-03-20T01:58:31.563Z,14.75
2023-03-20T02:01:00.114Z,14.63
2023-03-20T02:03:27.452Z,15.45
2023-03-20T02:06:13.340Z,15.98
2023-03-20T02:09:12.093Z,14.82
2023-03-20T02:11:46.279Z,15.50
2023-03-20T02:14:14.975Z,14.75
2023-03-20T02:17:08.649Z,14.70
2023-03-20T02:20:30.045Z,14.95
2023-03-20T02:23:29.592Z,15.13
2023-03-20T02:26:28.159Z,14.35
2023-03-20T02:29:23.783Z,14.80
2023-03-20T02:32:25.007Z,15.23
2023-03-20T02:35:28.362Z,14.90
2023-03-20T02:41:25.200Z,14.63
2023-03-20T02:44:22.883Z,14.02
2023-03-20T02:47:00.068Z,15.77
2023-03-20T02:50:01.341Z,15.15
2023-03-20T02:53:09.794Z,14.77
2023-03-20T02:55:44.008Z,15.32
2023-03-20T02:58:32.243Z,14.80
2023-03-20T03:01:11.997Z,14.38
2023-03-20T03:03:48.543Z,15.05
2023-03-20T03:06:28.074Z,15.32
2023-03-20T03:09:05.659Z,14.65
2023-03-20T03:11:45.010Z,14.93
2023-03-20T03:14:24.389Z,14.38
2023-03-20T03:16:54.176Z,14.73
2023-03-20T03:19:27.985Z,14.15
2023-03-20T03:21:55.562Z,14.32
2023-03-20T03:24:41.419Z,14.25
2023-03-20T03:27:29.494Z,14.48
2023-03-20T03:30:27.999Z,13.23
2023-03-20T03:33:37.221Z,14.32
2023-03-20T03:36:31.358Z,14.45
2023-03-20T03:39:24.595Z,13.50
2023-03-20T03:42:25.035Z,13.88
2023-03-20T03:45:14.721Z,14.65
2023-03-20T03:47:55.854Z,14.00
2023-03-20T03:50:48.901Z,13.57
2023-03-20T03:53:32.874Z,13.93
2023-03-20T03:56:06.843Z,14.20
2023-03-20T03:58:43.953Z,14.15
2023-03-20T04:01:14.360Z,14.60
2023-03-20T04:03:58.269Z,15.05
2023-03-20T04:06:27.532Z,14.48
2023-03-20T04:08:55.205Z,14.57
2023-03-20T04:11:25.988Z,14.48
2023-03-20T04:13:53.491Z,14.73
2023-03-20T04:16:23.554Z,13.90
2023-03-20T04:18:52.306Z,14.13
2023-03-20T04:21:19.918Z,13.88
2023-03-20T04:23:47.439Z,13.98
2023-03-20T04:26:15.020Z,14.02
2023-03-20T04:28:42.404Z,14.05
2023-03-20T04:31:28.649Z,13.27
2023-03-20T04:34:18.075Z,13.15
2023-03-20T04:37:00.930Z,13.48
2023-03-20T04:39:42.954Z,13.45
2023-03-20T04:42:11.722Z,14.23
2023-03-20T04:44:38.891Z,13.05
2023-03-20T04:47:06.524Z,14.18
2023-03-20T04:49:36.551Z,12.60
2023-03-20T04:52:04.116Z,13.40
2023-03-20T04:54:41.210Z,13.25
2023-03-20T04:57:08.316Z,14.68
2023-03-20T04:59:36.664Z,14.68
2023-03-20T05:02:04.074Z,13.35
2023-03-20T05:04:31.350Z,13.65
2023-03-20T05:06:58.522Z,13.65
2023-03-20T05:09:32.880Z,13.88
2023-03-20T05:12:03.112Z,13.20
2023-03-20T05:14:49.082Z,14.13
2023-03-20T05:17:37.075Z,14.27
2023-03-20T05:20:30.836Z,13.73
2023-03-20T05:23:07.593Z,15.10
2023-03-20T05:25:55.640Z,14.02
2023-03-20T05:28:41.477Z,13.75
2023-03-20T05:31:23.867Z,13.88
2023-03-20T05:34:00.268Z,13.65
2023-03-20T05:36:42.851Z,13.30
2023-03-20T05:39:32.179Z,12.90
2023-03-20T05:42:19.870Z,13.73
2023-03-20T05:45:17.393Z,13.63
2023-03-20T05:48:03.523Z,13.85
2023-03-20T05:50:36.509Z,13.23
2023-03-20T05:53:38.982Z,14.48
2023-03-20T05:56:25.979Z,14.77
2023-03-20T05:59:12.643Z,15.75
2023-03-20T06:02:00.502Z,14.48
2023-03-20T06:04:34.994Z,14.35
2023-03-20T06:07:16.781Z,14.75
2023-03-20T06:09:49.174Z,15.05
2023-03-20T06:12:17.103Z,14.18
2023-03-20T06:14:44.280Z,15.25
2023-03-20T06:17:12.259Z,14.70
2023-03-20T06:19:39.532Z,14.20
2023-03-20T06:22:06.678Z,15.07
2023-03-20T06:24:35.385Z,14.35
2023-03-20T06:27:02.386Z,14.02
2023-03-20T06:29:30.252Z,14.38
2023-03-20T06:32:09.332Z,14.25
2023-03-20T06:34:37.509Z,14.82
2023-03-20T06:37:04.493Z,14.88
2023-03-20T06:39:33.094Z,15.18
2023-03-20T06:42:00.274Z,15.43
2023-03-20T06:44:28.724Z,16.48
2023-03-20T06:49:39.239Z,17.27
2023-03-20T06:52:10.386Z,18.13
2023-03-20T06:54:38.504Z,19.35
2023-03-20T06:57:05.435Z,19.05
2023-03-20T06:59:32.688Z,20.05
2023-03-20T07:02:00.177Z,21.02
2023-03-20T07:04:27.976Z,19.40
2023-03-20T07:06:59.035Z,19.73
2023-03-20T07:09:26.888Z,19.30
2023-03-20T07:11:54.397Z,20.30
2023-03-20T07:14:23.122Z,19.40
2023-03-20T07:17:03.696Z,19.77
2023-03-20T07:19:33.231Z,21.10
2023-03-20T07:22:04.672Z,21.15
2023-03-20T07:24:38.299Z,21.08
2023-03-20T07:27:05.435Z,21.00
2023-03-20T07:29:34.641Z,20.27
2023-03-20T07:32:04.062Z,21.02
2023-03-20T07:34:36.811Z,20.73
2023-03-20T07:37:04.984Z,20.05
2023-03-20T07:39:33.855Z,19.70
2023-03-20T07:42:21.081Z,18.48
2023-03-20T07:44:58.530Z,19.42
2023-03-20T07:47:25.962Z,19.42
2023-03-20T07:49:53.447Z,18.27
2023-03-20T07:52:20.447Z,18.30
2023-03-20T07:54:47.851Z,18.30
2023-03-20T07:57:14.860Z,18.40
2023-03-20T07:59:42.082Z,18.17
2023-03-20T08:02:16.215Z,18.45
2023-03-20T08:04:44.993Z,17.45
2023-03-20T08:07:12.690Z,17.45
2023-03-20T08:09:40.398Z,17.33
2023-03-20T08:12:07.619Z,17.02
2023-03-20T08:14:35.260Z,18.08
2023-03-20T08:17:14.398Z,17.65
2023-03-20T08:19:42.420Z,19.08
2023-03-20T08:22:09.750Z,18.42
2023-03-20T08:24:37.092Z,18.05
2023-03-20T08:27:04.546Z,17.23
2023-03-20T08:29:31.938Z,17.58
2023-03-20T08:31:58.980Z,16.35
2023-03-20T08:34:26.385Z,15.68
2023-03-20T08:36:53.647Z,15.65
2023-03-20T08:39:21.862Z,14.70
2023-03-20T08:41:48.771Z,17.42
2023-03-20T08:44:17.219Z,17.35
2023-03-20T08:46:46.246Z,17.40
2023-03-20T08:49:14.117Z,16.50
2023-03-20T08:51:41.384Z,14.27
2023-03-20T08:54:08.832Z,14.88
2023-03-20T08:56:35.863Z,13.95
2023-03-20T08:59:03.712Z,13.15
2023-03-20T09:01:46.260Z,12.68
2023-03-20T09:04:15.960Z,13.20
2023-03-20T09:06:42.862Z,13.07
2023-03-20T09:09:10.573Z,13.18
2023-03-20T09:11:37.694Z,11.20
2023-03-20T09:14:04.957Z,13.43
2023-03-20T09:16:31.983Z,18.02
2023-03-20T09:18:59.407Z,15.77
2023-03-20T09:21:26.434Z,14.32
2023-03-20T09:23:53.668Z,12.32
2023-03-20T09:26:20.695Z,12.10
2023-03-20T09:28:47.980Z,12.20
2023-03-20T09:31:15.478Z,12.02
2023-03-20T09:33:42.837Z,10.95
2023-03-20T09:36:11.821Z,11.90
2023-03-20T09:38:41.910Z,10.63
2023-03-20T09:41:45.880Z,11.15
2023-03-20T09:44:45.986Z,10.50
2023-03-20T09:47:38.492Z,11.38
2023-03-20T09:50:42.381Z,10.68
2023-03-20T09:53:33.611Z,10.05
2023-03-20T09:56:04.404Z,10.35
2023-03-20T09:58:37.644Z,9.90
2023-03-20T10:01:11.570Z,10.35
2023-03-20T10:03:55.707Z,9.98
2023-03-20T10:06:23.433Z,10.30
2023-03-20T10:08:51.884Z,10.20
2023-03-20T10:11:34.532Z,10.30
2023-03-20T10:14:40.752Z,10.43
2023-03-20T10:17:39.860Z,10.63
2023-03-20T10:20:33.396Z,10.77
2023-03-20T10:23:33.196Z,11.48
2023-03-20T10:26:10.193Z,10.85
2023-03-20T10:28:53.987Z,10.55
2023-03-20T10:32:12.528Z,10.07
2023-03-20T10:35:04.448Z,10.05
2023-03-20T10:38:06.731Z,10.02
2023-03-20T10:40:39.411Z,9.95
2023-03-20T10:45:57.327Z,9.90
2023-03-20T10:48:44.291Z,10.38
2023-03-20T10:51:19.933Z,10.00
2023-03-20T10:53:56.969Z,10.38
2023-03-20T10:56:42.167Z,10.18
2023-03-20T10:59:26.193Z,10.02
2023-03-20T11:01:54.015Z,9.70
2023-03-20T11:04:21.637Z,9.50
2023-03-20T11:07:06.463Z,10.45
2023-03-20T11:09:33.888Z,10.10
2023-03-20T11:12:03.040Z,10.02
2023-03-20T11:14:39.308Z,12.68
2023-03-20T11:17:07.209Z,16.92
2023-03-20T11:19:37.640Z,16.67
2023-03-20T11:22:26.600Z,16.40
2023-03-20T11:25:03.915Z,13.48
2023-03-20T11:27:34.935Z,11.75
2023-03-20T11:30:15.778Z,11.35
2023-03-20T11:32:54.830Z,10.93
2023-03-20T11:35:27.478Z,10.07
2023-03-20T11:38:13.676Z,10.05
2023-03-20T11:40:41.286Z,9.65
2023-03-20T11:43:18.592Z,9.95
2023-03-20T11:45:54.165Z,10.27
2023-03-20T11:48:26.548Z,9.57
2023-03-20T11:51:07.274Z,9.45
2023-03-20T11:53:49.879Z,9.43
2023-03-20T11:56:30.284Z,9.73
2023-03-20T11:59:06.860Z,9.32
2023-03-20T12:01:48.924Z,10.00
2023-03-20T12:04:31.811Z,10.30
2023-03-20T12:09:54.720Z,10.27
2023-03-20T12:12:37.499Z,13.18
2023-03-20T12:15:34.209Z,12.57
2023-03-20T12:18:14.330Z,11.77
2023-03-20T12:21:17.898Z,11.88
2023-03-20T12:23:56.985Z,11.38
2023-03-20T12:27:01.392Z,10.05
2023-03-20T12:29:54.611Z,10.68
2023-03-20T12:32:46.366Z,10.73
2023-03-20T12:35:27.785Z,10.35
2023-03-20T12:37:55.396Z,9.90
2023-03-20T12:40:37.595Z,10.30
2023-03-20T12:43:27.495Z,10.20
2023-03-20T12:46:20.867Z,10.05
2023-03-20T12:49:12.941Z,9.35
2023-03-20T12:52:23.388Z,9.57
2023-03-20T12:55:26.263Z,9.43
2023-03-20T12:58:17.229Z,9.40
2023-03-20T13:01:00.010Z,9.25
2023-03-20T13:04:24.645Z,9.18
2023-03-20T13:06:56.382Z,9.05
2023-03-20T13:10:09.094Z,8.90
2023-03-20T13:13:18.431Z,8.95
2023-03-20T13:16:14.352Z,9.30
2023-03-20T13:19:07.887Z,9.77
2023-03-20T13:21:56.659Z,11.00
2023-03-20T13:25:13.721Z,10.07
2023-03-20T13:27:52.221Z,10.85
2023-03-20T13:30:56.736Z,9.15
2023-03-20T13:34:00.947Z,10.00
2023-03-20T13:37:23.908Z,9.35
2023-03-20T13:40:14.291Z,8.07
2023-03-20T13:42:51.039Z,8.18
2023-03-20T13:45:41.350Z,7.70
2023-03-20T13:48:26.673Z,6.53
2023-03-20T13:51:19.395Z,7.65
2023-03-20T13:54:08.409Z,9.65
2023-03-20T13:56:51.333Z,9.80
2023-03-20T14:00:01.248Z,9.82
2023-03-20T14:02:50.752Z,9.13
2023-03-20T14:05:23.281Z,8.55
2023-03-20T14:10:24.045Z,7.22
2023-03-20T14:13:01.985Z,6.88
2023-03-20T14:15:38.677Z,7.10
2023-03-20T14:18:17.574Z,7.32
2023-03-20T14:21:02.976Z,7.07
2023-03-20T14:23:40.046Z,7.00
2023-03-20T14:26:23.491Z,7.57
2023-03-20T14:29:21.034Z,6.53
2023-03-20T14:31:52.245Z,7.30
2023-03-20T14:34:24.709Z,7.43
2023-03-20T14:37:27.189Z,7.97
2023-03-20T14:40:22.412Z,7.15
2023-03-20T14:43:14.093Z,7.53
2023-03-20T14:46:08.380Z,7.65
2023-03-20T14:48:45.880Z,7.57
2023-03-20T14:51:39.382Z,7.93
2023-03-20T14:58:43.703Z,8.45
2023-03-20T15:01:22.304Z,7.95
2023-03-20T15:03:57.609Z,8.25
2023-03-20T15:06:29.077Z,8.45
2023-03-20T15:09:08.766Z,8.25
2023-03-20T15:11:38.182Z,8.20
2023-03-20T15:14:10.293Z,8.18
2023-03-20T15:19:20.447Z,7.32
2023-03-20T15:21:49.463Z,8.43
2023-03-20T15:24:29.792Z,7.63
2023-03-20T15:27:01.969Z,7.32
2023-03-20T15:29:33.130Z,7.25
2023-03-20T15:32:14.102Z,6.68
2023-03-20T15:34:44.429Z,7.57
2023-03-20T15:37:17.429Z,7.45
2023-03-20T15:39:56.890Z,8.00
2023-03-20T15:42:27.942Z,7.65
2023-03-20T15:44:56.771Z,7.75
2023-03-20T15:47:26.210Z,8.43
2023-03-20T15:50:01.056Z,8.02
2023-03-20T15:52:39.189Z,8.90
2023-03-20T15:55:16.285Z,8.60
2023-03-20T15:57:59.747Z,8.98
2023-03-20T16:00:31.973Z,9.32
2023-03-20T16:03:05.251Z,9.70
2023-03-20T16:05:33.356Z,9.13
2023-03-20T16:08:27.136Z,9.45
2023-03-20T16:11:05.978Z,9.07
2023-03-20T16:13:42.390Z,8.95
2023-03-20T16:16:17.831Z,9.05
2023-03-20T16:18:49.787Z,9.20
2023-03-20T16:21:30.610Z,9.60
2023-03-20T16:24:02.315Z,9.70
2023-03-20T16:26:29.794Z,10.07
2023-03-20T16:29:05.247Z,10.27
2023-03-20T16:31:36.206Z,10.38
2023-03-20T16:34:21.677Z,10.60
2023-03-20T16:37:00.143Z,9.38
2023-03-20T16:39:31.501Z,9.93
2023-03-20T16:42:12.000Z,9.73
2023-03-20T16:44:42.284Z,8.98
2023-03-20T16:47:21.605Z,8.70
2023-03-20T16:50:06.725Z,8.40
2023-03-20T16:52:40.388Z,8.18
2023-03-20T16:55:17.724Z,8.30
2023-03-20T16:57:50.554Z,8.40
2023-03-20T17:00:30.127Z,7.82
2023-03-20T17:03:26.292Z,8.05
2023-03-20T17:06:27.338Z,8.52
2023-03-20T17:09:20.781Z,9.18
2023-03-20T17:11:57.827Z,9.85
2023-03-20T17:14:25.751Z,10.27
2023-03-20T17:16:55.526Z,11.80
2023-03-20T17:19:24.637Z,12.50
2023-03-20T17:21:53.316Z,13.60
2023-03-20T17:24:21.496Z,13.15
2023-03-20T17:26:56.778Z,12.45
2023-03-20T17:29:24.428Z,12.60
2023-03-20T17:31:52.746Z,12.02
2023-03-20T17:34:20.443Z,11.45
2023-03-20T17:36:49.099Z,11.63
2023-03-20T17:39:21.750Z,12.45
2023-03-20T17:41:49.727Z,11.98
2023-03-20T17:44:26.341Z,11.52
2023-03-20T17:46:58.912Z,11.38
2023-03-20T17:49:27.746Z,11.10
2023-03-20T17:51:56.712Z,10.95
2023-03-20T17:54:23.948Z,12.05
2023-03-20T17:56:52.028Z,11.43
2023-03-20T17:59:20.145Z,12.82
2023-03-20T18:01:48.327Z,13.13
2023-03-20T18:04:16.248Z,13.23
2023-03-20T18:06:44.485Z,13.60
2023-03-20T18:09:14.874Z,13.65
2023-03-20T18:11:43.017Z,13.13
2023-03-20T18:14:12.491Z,13.98
2023-03-20T18:16:40.733Z,13.32
2023-03-20T18:19:29.484Z,13.68
2023-03-20T18:21:58.100Z,12.43
2023-03-20T18:24:26.474Z,12.10
2023-03-20T18:27:18.890Z,12.15
2023-03-20T18:29:46.157Z,12.02
2023-03-20T18:32:13.974Z,11.43
2023-03-20T18:34:42.071Z,11.15
2023-03-20T18:37:14.711Z,10.95
2023-03-20T18:39:41.910Z,11.15
2023-03-20T18:42:09.591Z,10.63
2023-03-20T18:44:37.146Z,10.10
2023-03-20T18:47:05.056Z,10.65
2023-03-20T18:49:38.831Z,10.25
2023-03-20T18:52:07.177Z,9.88
2023-03-20T18:54:34.867Z,10.00
2023-03-20T18:57:02.621Z,9.05
2023-03-20T18:59:30.073Z,9.50
2023-03-20T19:01:57.734Z,9.27
2023-03-20T19:04:32.469Z,9.50
2023-03-20T19:07:00.347Z,9.02
2023-03-20T19:09:27.612Z,8.15
2023-03-20T19:11:55.650Z,8.48
2023-03-20T19:14:23.814Z,8.95
2023-03-20T19:16:51.738Z,9.35
2023-03-20T19:19:19.073Z,9.68
2023-03-20T19:21:46.563Z,9.32
2023-03-20T19:24:13.766Z,10.18
2023-03-20T19:26:42.245Z,11.48
2023-03-20T19:29:14.087Z,11.75
2023-03-20T19:31:41.680Z,12.68
2023-03-20T19:34:36.791Z,13.30
2023-03-20T19:37:00.530Z,14.10
2023-03-20T19:39:27.695Z,15.00
2023-03-20T19:41:55.947Z,15.38
2023-03-20T19:44:23.686Z,16.30
2023-03-20T19:46:51.780Z,16.63
2023-03-20T19:49:33.207Z,18.35
2023-03-20T19:52:00.873Z,16.73
2023-03-20T19:54:28.605Z,17.50
2023-03-20T19:57:00.456Z,18.83
2023-03-20T19:59:29.120Z,18.60
2023-03-20T20:01:58.928Z,17.45
2023-03-20T20:04:27.021Z,17.75
2023-03-20T20:07:40.778Z,17.90
2023-03-20T20:09:48.181Z,16.75
2023-03-20T20:12:17.378Z,16.90
2023-03-20T20:14:44.764Z,16.52
2023-03-20T20:17:12.567Z,15.82
2023-03-20T20:19:54.389Z,16.95
2023-03-20T20:22:26.040Z,15.30
2023-03-20T20:24:54.804Z,16.52
2023-03-20T20:27:22.572Z,16.88
2023-03-20T20:29:53.274Z,15.70
2023-03-20T20:32:26.651Z,16.50
2023-03-20T20:40:32.335Z,16.83
2023-03-20T20:43:02.483Z,16.50
2023-03-20T20:45:34.655Z,15.93
2023-03-20T20:48:09.513Z,16.10
2023-03-20T20:50:36.862Z,16.15
2023-03-20T20:53:05.315Z,16.48
2023-03-20T20:55:32.830Z,17.08
2023-03-20T20:58:01.366Z,16.70
2023-03-20T21:00:48.526Z,17.25
2023-03-20T21:03:16.800Z,16.35
2023-03-20T21:05:44.460Z,16.65
2023-03-20T21:08:14.127Z,16.20
2023-03-20T21:10:45.358Z,15.63
2023-03-20T21:13:13.127Z,16.88
2023-03-20T21:15:42.207Z,16.52
2023-03-20T21:18:21.650Z,16.02
2023-03-20T21:20:49.445Z,15.63
2023-03-20T21:23:16.924Z,15.90
2023-03-20T21:25:47.728Z,15.40
2023-03-20T21:28:15.821Z,15.18
2023-03-20T21:31:05.957Z,15.48
2023-03-20T21:33:34.080Z,16.23
2023-03-20T21:36:03.125Z,17.23
2023-03-20T21:39:06.000Z,19.40
2023-03-20T21:41:19.355Z,19.90
2023-03-20T21:43:47.739Z,20.55
2023-03-20T21:58:17.535Z,27.50
2023-03-20T22:03:23.161Z,28.77
2023-03-20T22:17:55.930Z,23.05
2023-03-20T22:23:43.412Z,18.83
2023-03-20T22:29:35.119Z,16.52
2023-03-20T22:38:00.495Z,14.10
2023-03-20T22:40:48.837Z,12.18
2023-03-20T22:43:50.760Z,11.38
2023-03-20T22:46:05.651Z,10.60
2023-03-20T22:48:40.819Z,10.00
2023-03-20T22:51:08.976Z,10.32
2023-03-20T22:53:36.977Z,9.60
2023-03-20T22:56:04.864Z,9.30
2023-03-20T22:58:33.590Z,9.23
2023-03-20T23:01:02.959Z,8.88
2023-03-20T23:03:41.445Z,8.65
2023-03-20T23:06:28.675Z,8.57
2023-03-20T23:08:59.660Z,8.60
2023-03-20T23:11:30.996Z,8.63
2023-03-20T23:14:00.842Z,7.93
2023-03-20T23:16:28.144Z,8.90
2023-03-20T23:18:56.899Z,7.72
2023-03-20T23:21:25.692Z,8.00
2023-03-20T23:23:53.877Z,7.75
2023-03-20T23:26:22.296Z,7.40
2023-03-20T23:28:53.420Z,7.90
2023-03-20T23:31:25.577Z,7.55
2023-03-20T23:33:58.102Z,7.65
2023-03-20T23:36:36.761Z,6.75
2023-03-20T23:39:10.220Z,6.95
2023-03-20T23:44:26.543Z,6.50
2023-03-20T23:46:55.626Z,6.75
2023-03-20T23:49:23.961Z,6.40
2023-03-20T23:51:51.339Z,6.60
2023-03-20T23:54:19.634Z,6.57
2023-03-20T23:56:47.753Z,6.40
2023-03-20T23:59:21.466Z,6.32
